sensor_id;sensor_type;location;lat;lon;timestamp;temperature;humidity
8563;DHT22;16392;52.508;13.468;2023-05-31T00:00:56;13.40;99.90
8563;DHT22;16392;52.508;13.468;2023-05-31T00:03:22;13.30;1.00
8563;DHT22;16392;52.508;13.468;2023-05-31T00:05:50;13.20;1.00
8563;DHT22;16392;52.508;13.468;2023-05-31T00:08:17;13.20;1.00
8563;DHT22;16392;52.508;13.468;2023-05-31T00:10:43;13.20;1.00
8563;DHT22;16392;52.508;13.468;2023-05-31T00:13:10;13.30;1.00
8563;DHT22;16392;52.508;13.468;2023-05-31T00:15:36;13.30;1.00
8563;DHT22;16392;52.508;13.468;2023-05-31T00:18:03;13.30;1.00
8563;DHT22;16392;52.508;13.468;2023-05-31T00:20:29;13.20;1.00
8563;DHT22;16392;52.508;13.468;2023-05-31T00:22:57;13.20;1.00
8563;DHT22;16392;52.508;13.468;2023-05-31T00:25:23;13.10;1.00
8563;DHT22;16392;52.508;13.468;2023-05-31T00:27:50;13.10;1.00
8563;DHT22;16392;52.508;13.468;2023-05-31T00:30:18;13.10;1.00
8563;DHT22;16392;52.508;13.468;2023-05-31T00:32:44;13.00;1.00
8563;DHT22;16392;52.508;13.468;2023-05-31T00:35:11;12.90;1.00
8563;DHT22;16392;52.508;13.468;2023-05-31T00:37:37;12.80;1.00
8563;DHT22;16392;52.508;13.468;2023-05-31T00:40:06;12.70;1.00
8563;DHT22;16392;52.508;13.468;2023-05-31T00:42:33;12.70;1.00
8563;DHT22;16392;52.508;13.468;2023-05-31T00:44:59;12.70;43.10
8563;DHT22;16392;52.508;13.468;2023-05-31T00:47:26;12.70;77.80
8563;DHT22;16392;52.508;13.468;2023-05-31T00:49:53;12.60;66.20
8563;DHT22;16392;52.508;13.468;2023-05-31T00:52:20;12.60;99.90
8563;DHT22;16392;52.508;13.468;2023-05-31T00:54:47;12.60;98.70
8563;DHT22;16392;52.508;13.468;2023-05-31T00:57:15;12.50;99.90
8563;DHT22;16392;52.508;13.468;2023-05-31T00:59:42;12.50;99.90
8563;DHT22;16392;52.508;13.468;2023-05-31T01:02:08;12.40;99.90
8563;DHT22;16392;52.508;13.468;2023-05-31T01:04:35;12.30;99.90
8563;DHT22;16392;52.508;13.468;2023-05-31T01:07:02;12.30;99.90
8563;DHT22;16392;52.508;13.468;2023-05-31T01:09:28;12.30;99.90
8563;DHT22;16392;52.508;13.468;2023-05-31T01:11:59;12.30;99.90
8563;DHT22;16392;52.508;13.468;2023-05-31T01:14:31;12.10;1.00
8563;DHT22;16392;52.508;13.468;2023-05-31T01:17:03;12.20;1.00
8563;DHT22;16392;52.508;13.468;2023-05-31T01:19:35;12.30;99.90
8563;DHT22;16392;52.508;13.468;2023-05-31T01:22:07;12.40;99.90
8563;DHT22;16392;52.508;13.468;2023-05-31T01:24:43;12.40;99.90
8563;DHT22;16392;52.508;13.468;2023-05-31T01:27:12;12.20;99.90
8563;DHT22;16392;52.508;13.468;2023-05-31T01:29:41;12.20;99.90
8563;DHT22;16392;52.508;13.468;2023-05-31T01:32:08;12.30;1.00
8563;DHT22;16392;52.508;13.468;2023-05-31T01:34:38;12.20;1.00
8563;DHT22;16392;52.508;13.468;2023-05-31T01:37:05;12.20;99.90
8563;DHT22;16392;52.508;13.468;2023-05-31T01:39:32;12.10;1.00
8563;DHT22;16392;52.508;13.468;2023-05-31T01:41:58;12.10;99.90
8563;DHT22;16392;52.508;13.468;2023-05-31T01:44:27;12.10;1.00
8563;DHT22;16392;52.508;13.468;2023-05-31T01:46:54;12.10;99.90
8563;DHT22;16392;52.508;13.468;2023-05-31T01:49:21;12.10;99.90
8563;DHT22;16392;52.508;13.468;2023-05-31T01:51:48;12.10;99.90
8563;DHT22;16392;52.508;13.468;2023-05-31T01:54:16;11.90;1.00
8563;DHT22;16392;52.508;13.468;2023-05-31T01:56:43;11.80;1.00
8563;DHT22;16392;52.508;13.468;2023-05-31T01:59:11;11.80;1.00
8563;DHT22;16392;52.508;13.468;2023-05-31T02:01:39;11.60;1.00
8563;DHT22;16392;52.508;13.468;2023-05-31T02:04:06;11.70;1.00
8563;DHT22;16392;52.508;13.468;2023-05-31T02:06:34;11.60;1.00
8563;DHT22;16392;52.508;13.468;2023-05-31T02:09:02;11.70;1.00
8563;DHT22;16392;52.508;13.468;2023-05-31T02:11:29;11.70;1.00
8563;DHT22;16392;52.508;13.468;2023-05-31T02:13:55;11.80;1.00
8563;DHT22;16392;52.508;13.468;2023-05-31T02:16:22;11.80;1.00
8563;DHT22;16392;52.508;13.468;2023-05-31T02:18:50;11.80;1.00
8563;DHT22;16392;52.508;13.468;2023-05-31T02:21:17;11.60;1.00
8563;DHT22;16392;52.508;13.468;2023-05-31T02:23:44;11.60;1.00
8563;DHT22;16392;52.508;13.468;2023-05-31T02:26:10;11.60;1.00
8563;DHT22;16392;52.508;13.468;2023-05-31T02:28:37;11.70;1.00
8563;DHT22;16392;52.508;13.468;2023-05-31T02:31:03;11.70;1.00
8563;DHT22;16392;52.508;13.468;2023-05-31T02:33:30;11.60;1.00
8563;DHT22;16392;52.508;13.468;2023-05-31T02:35:58;11.50;1.00
8563;DHT22;16392;52.508;13.468;2023-05-31T02:38:25;11.50;1.00
8563;DHT22;16392;52.508;13.468;2023-05-31T02:40:52;11.40;1.00
8563;DHT22;16392;52.508;13.468;2023-05-31T02:43:18;11.50;1.00
8563;DHT22;16392;52.508;13.468;2023-05-31T02:45:45;11.20;1.00
8563;DHT22;16392;52.508;13.468;2023-05-31T02:48:11;11.30;1.00
8563;DHT22;16392;52.508;13.468;2023-05-31T02:50:38;11.30;1.00
8563;DHT22;16392;52.508;13.468;2023-05-31T02:53:06;11.40;1.00
8563;DHT22;16392;52.508;13.468;2023-05-31T02:55:33;11.50;1.00
8563;DHT22;16392;52.508;13.468;2023-05-31T02:57:59;11.50;1.00
8563;DHT22;16392;52.508;13.468;2023-05-31T03:00:26;11.50;1.00
8563;DHT22;16392;52.508;13.468;2023-05-31T03:02:54;11.50;1.00
8563;DHT22;16392;52.508;13.468;2023-05-31T03:05:20;11.50;1.00
8563;DHT22;16392;52.508;13.468;2023-05-31T03:07:48;11.30;1.00
8563;DHT22;16392;52.508;13.468;2023-05-31T03:10:16;11.20;99.90
8563;DHT22;16392;52.508;13.468;2023-05-31T03:12:42;11.20;99.90
8563;DHT22;16392;52.508;13.468;2023-05-31T03:15:11;11.20;99.90
8563;DHT22;16392;52.508;13.468;2023-05-31T03:17:37;11.10;1.00
8563;DHT22;16392;52.508;13.468;2023-05-31T03:20:05;11.10;1.00
8563;DHT22;16392;52.508;13.468;2023-05-31T03:22:34;11.10;99.90
8563;DHT22;16392;52.508;13.468;2023-05-31T03:25:00;11.20;99.90
8563;DHT22;16392;52.508;13.468;2023-05-31T03:27:28;11.30;99.90
8563;DHT22;16392;52.508;13.468;2023-05-31T03:29:55;11.40;99.90
8563;DHT22;16392;52.508;13.468;2023-05-31T03:32:22;11.80;1.00
8563;DHT22;16392;52.508;13.468;2023-05-31T03:34:48;12.00;1.00
8563;DHT22;16392;52.508;13.468;2023-05-31T03:37:15;12.30;99.90
8563;DHT22;16392;52.508;13.468;2023-05-31T03:39:41;12.40;95.30
8563;DHT22;16392;52.508;13.468;2023-05-31T03:42:08;12.70;1.00
8563;DHT22;16392;52.508;13.468;2023-05-31T03:44:36;12.90;1.00
8563;DHT22;16392;52.508;13.468;2023-05-31T03:47:03;13.00;1.00
8563;DHT22;16392;52.508;13.468;2023-05-31T03:49:29;13.10;1.00
8563;DHT22;16392;52.508;13.468;2023-05-31T03:51:56;13.30;1.00
8563;DHT22;16392;52.508;13.468;2023-05-31T03:54:23;13.50;99.90
8563;DHT22;16392;52.508;13.468;2023-05-31T03:56:49;13.70;99.90
8563;DHT22;16392;52.508;13.468;2023-05-31T03:59:16;13.80;99.90
8563;DHT22;16392;52.508;13.468;2023-05-31T04:01:44;14.10;99.90
8563;DHT22;16392;52.508;13.468;2023-05-31T04:04:10;14.10;99.90
8563;DHT22;16392;52.508;13.468;2023-05-31T04:06:37;14.10;54.30
8563;DHT22;16392;52.508;13.468;2023-05-31T04:09:03;14.20;68.20
8563;DHT22;16392;52.508;13.468;2023-05-31T04:11:30;14.10;31.50
8563;DHT22;16392;52.508;13.468;2023-05-31T04:13:56;14.50;99.90
8563;DHT22;16392;52.508;13.468;2023-05-31T04:16:23;14.80;1.00
8563;DHT22;16392;52.508;13.468;2023-05-31T04:18:51;15.20;1.00
8563;DHT22;16392;52.508;13.468;2023-05-31T04:21:18;15.50;1.00
8563;DHT22;16392;52.508;13.468;2023-05-31T04:23:45;15.70;1.00
8563;DHT22;16392;52.508;13.468;2023-05-31T04:26:11;16.00;1.00
8563;DHT22;16392;52.508;13.468;2023-05-31T04:28:41;16.40;99.90
8563;DHT22;16392;52.508;13.468;2023-05-31T04:31:08;16.70;99.90
8563;DHT22;16392;52.508;13.468;2023-05-31T04:33:35;16.80;99.90
8563;DHT22;16392;52.508;13.468;2023-05-31T04:36:03;16.80;99.90
8563;DHT22;16392;52.508;13.468;2023-05-31T04:38:30;17.20;99.90
8563;DHT22;16392;52.508;13.468;2023-05-31T04:40:57;17.50;99.90
8563;DHT22;16392;52.508;13.468;2023-05-31T04:43:25;17.00;99.90
8563;DHT22;16392;52.508;13.468;2023-05-31T04:45:52;17.00;99.90
8563;DHT22;16392;52.508;13.468;2023-05-31T04:48:18;16.60;99.90
8563;DHT22;16392;52.508;13.468;2023-05-31T04:50:45;16.60;99.90
8563;DHT22;16392;52.508;13.468;2023-05-31T04:53:15;17.40;99.90
8563;DHT22;16392;52.508;13.468;2023-05-31T04:55:41;17.50;99.90
8563;DHT22;16392;52.508;13.468;2023-05-31T04:58:08;18.10;99.90
8563;DHT22;16392;52.508;13.468;2023-05-31T05:00:34;18.60;99.90
8563;DHT22;16392;52.508;13.468;2023-05-31T05:03:02;17.90;99.90
8563;DHT22;16392;52.508;13.468;2023-05-31T05:05:28;17.50;99.90
8563;DHT22;16392;52.508;13.468;2023-05-31T05:07:55;17.20;99.90
8563;DHT22;16392;52.508;13.468;2023-05-31T05:10:23;17.30;99.90
8563;DHT22;16392;52.508;13.468;2023-05-31T05:12:49;17.00;99.90
8563;DHT22;16392;52.508;13.468;2023-05-31T05:15:16;18.10;99.90
8563;DHT22;16392;52.508;13.468;2023-05-31T05:17:42;19.00;99.90
8563;DHT22;16392;52.508;13.468;2023-05-31T05:20:11;19.90;99.90
8563;DHT22;16392;52.508;13.468;2023-05-31T05:22:38;20.00;61.90
8563;DHT22;16392;52.508;13.468;2023-05-31T05:25:05;19.10;58.10
8563;DHT22;16392;52.508;13.468;2023-05-31T05:27:33;19.70;64.60
8563;DHT22;16392;52.508;13.468;2023-05-31T05:30:00;20.40;36.10
8563;DHT22;16392;52.508;13.468;2023-05-31T05:32:28;19.90;23.50
8563;DHT22;16392;52.508;13.468;2023-05-31T05:34:55;19.50;28.90
8563;DHT22;16392;52.508;13.468;2023-05-31T05:37:21;19.50;26.50
8563;DHT22;16392;52.508;13.468;2023-05-31T05:39:48;19.90;29.80
8563;DHT22;16392;52.508;13.468;2023-05-31T05:42:14;20.80;17.20
8563;DHT22;16392;52.508;13.468;2023-05-31T05:44:42;21.50;3.00
8563;DHT22;16392;52.508;13.468;2023-05-31T05:47:08;22.40;1.00
8563;DHT22;16392;52.508;13.468;2023-05-31T05:49:35;22.90;1.00
8563;DHT22;16392;52.508;13.468;2023-05-31T05:52:01;22.30;1.00
8563;DHT22;16392;52.508;13.468;2023-05-31T05:54:28;22.60;1.00
8563;DHT22;16392;52.508;13.468;2023-05-31T05:56:56;23.10;1.00
8563;DHT22;16392;52.508;13.468;2023-05-31T05:59:25;23.40;1.00
8563;DHT22;16392;52.508;13.468;2023-05-31T06:01:53;23.20;1.00
8563;DHT22;16392;52.508;13.468;2023-05-31T06:04:20;23.90;1.00
8563;DHT22;16392;52.508;13.468;2023-05-31T06:06:46;24.40;1.00
8563;DHT22;16392;52.508;13.468;2023-05-31T06:09:13;24.20;1.00
8563;DHT22;16392;52.508;13.468;2023-05-31T06:11:39;23.70;1.00
8563;DHT22;16392;52.508;13.468;2023-05-31T06:14:06;23.40;1.00
8563;DHT22;16392;52.508;13.468;2023-05-31T06:16:32;23.30;1.00
8563;DHT22;16392;52.508;13.468;2023-05-31T06:19:00;23.60;1.00
8563;DHT22;16392;52.508;13.468;2023-05-31T06:21:27;23.50;1.00
8563;DHT22;16392;52.508;13.468;2023-05-31T06:23:54;23.80;1.00
8563;DHT22;16392;52.508;13.468;2023-05-31T06:26:20;24.00;1.00
8563;DHT22;16392;52.508;13.468;2023-05-31T06:28:48;24.20;1.00
8563;DHT22;16392;52.508;13.468;2023-05-31T06:31:14;24.00;1.00
8563;DHT22;16392;52.508;13.468;2023-05-31T06:33:41;24.60;1.00
8563;DHT22;16392;52.508;13.468;2023-05-31T06:36:08;24.60;1.00
8563;DHT22;16392;52.508;13.468;2023-05-31T06:38:35;25.20;1.00
8563;DHT22;16392;52.508;13.468;2023-05-31T06:41:01;25.80;1.00
8563;DHT22;16392;52.508;13.468;2023-05-31T06:43:28;24.50;99.90
8563;DHT22;16392;52.508;13.468;2023-05-31T06:45:54;24.90;99.90
8563;DHT22;16392;52.508;13.468;2023-05-31T06:48:21;25.40;99.90
8563;DHT22;16392;52.508;13.468;2023-05-31T06:50:47;26.10;99.90
8563;DHT22;16392;52.508;13.468;2023-05-31T06:53:15;25.90;99.90
8563;DHT22;16392;52.508;13.468;2023-05-31T06:55:42;27.20;99.90
8563;DHT22;16392;52.508;13.468;2023-05-31T06:58:08;27.40;99.90
8563;DHT22;16392;52.508;13.468;2023-05-31T07:00:35;27.80;99.90
8563;DHT22;16392;52.508;13.468;2023-05-31T07:03:02;27.90;99.90
8563;DHT22;16392;52.508;13.468;2023-05-31T07:05:28;28.60;99.90
8563;DHT22;16392;52.508;13.468;2023-05-31T07:07:56;28.70;99.90
8563;DHT22;16392;52.508;13.468;2023-05-31T07:10:26;28.80;99.90
8563;DHT22;16392;52.508;13.468;2023-05-31T07:12:53;29.50;99.90
8563;DHT22;16392;52.508;13.468;2023-05-31T07:15:20;30.20;99.90
8563;DHT22;16392;52.508;13.468;2023-05-31T07:17:46;30.40;99.90
8563;DHT22;16392;52.508;13.468;2023-05-31T07:20:12;29.70;99.90
8563;DHT22;16392;52.508;13.468;2023-05-31T07:22:39;29.60;99.90
8563;DHT22;16392;52.508;13.468;2023-05-31T07:25:06;29.30;99.90
8563;DHT22;16392;52.508;13.468;2023-05-31T07:27:35;29.70;99.90
8563;DHT22;16392;52.508;13.468;2023-05-31T07:30:01;29.60;99.90
8563;DHT22;16392;52.508;13.468;2023-05-31T07:32:28;30.10;99.90
8563;DHT22;16392;52.508;13.468;2023-05-31T07:34:55;30.70;99.90
8563;DHT22;16392;52.508;13.468;2023-05-31T07:37:21;29.90;99.90
8563;DHT22;16392;52.508;13.468;2023-05-31T07:39:48;29.30;99.90
8563;DHT22;16392;52.508;13.468;2023-05-31T07:42:14;29.80;99.90
8563;DHT22;16392;52.508;13.468;2023-05-31T07:44:42;30.00;99.90
8563;DHT22;16392;52.508;13.468;2023-05-31T07:47:10;29.70;99.90
8563;DHT22;16392;52.508;13.468;2023-05-31T07:49:36;30.10;99.90
8563;DHT22;16392;52.508;13.468;2023-05-31T07:52:03;29.70;99.90
8563;DHT22;16392;52.508;13.468;2023-05-31T07:54:29;29.20;99.90
8563;DHT22;16392;52.508;13.468;2023-05-31T07:56:56;27.80;99.90
8563;DHT22;16392;52.508;13.468;2023-05-31T07:59:22;27.50;99.90
8563;DHT22;16392;52.508;13.468;2023-05-31T08:01:50;28.40;99.90
8563;DHT22;16392;52.508;13.468;2023-05-31T08:04:17;29.30;99.90
8563;DHT22;16392;52.508;13.468;2023-05-31T08:06:43;29.80;99.90
8563;DHT22;16392;52.508;13.468;2023-05-31T08:09:10;29.60;99.90
8563;DHT22;16392;52.508;13.468;2023-05-31T08:11:37;29.20;99.90
8563;DHT22;16392;52.508;13.468;2023-05-31T08:14:03;28.30;99.90
8563;DHT22;16392;52.508;13.468;2023-05-31T08:16:30;27.30;99.90
8563;DHT22;16392;52.508;13.468;2023-05-31T08:18:58;26.80;99.90
8563;DHT22;16392;52.508;13.468;2023-05-31T08:21:25;27.80;99.90
8563;DHT22;16392;52.508;13.468;2023-05-31T08:23:52;28.50;99.90
8563;DHT22;16392;52.508;13.468;2023-05-31T08:26:18;29.20;99.90
8563;DHT22;16392;52.508;13.468;2023-05-31T08:28:45;28.90;99.90
8563;DHT22;16392;52.508;13.468;2023-05-31T08:31:12;28.90;99.90
8563;DHT22;16392;52.508;13.468;2023-05-31T08:33:38;28.40;99.90
8563;DHT22;16392;52.508;13.468;2023-05-31T08:36:19;28.80;99.90
8563;DHT22;16392;52.508;13.468;2023-05-31T08:38:46;26.30;99.90
8563;DHT22;16392;52.508;13.468;2023-05-31T08:41:13;25.20;99.90
8563;DHT22;16392;52.508;13.468;2023-05-31T08:43:40;24.50;99.90
8563;DHT22;16392;52.508;13.468;2023-05-31T08:46:07;24.20;99.90
8563;DHT22;16392;52.508;13.468;2023-05-31T08:48:35;25.00;99.90
8563;DHT22;16392;52.508;13.468;2023-05-31T08:51:02;25.40;99.90
8563;DHT22;16392;52.508;13.468;2023-05-31T08:53:31;26.00;99.90
8563;DHT22;16392;52.508;13.468;2023-05-31T08:56:00;26.60;99.90
8563;DHT22;16392;52.508;13.468;2023-05-31T08:58:27;26.70;99.90
8563;DHT22;16392;52.508;13.468;2023-05-31T09:00:54;27.10;99.90
8563;DHT22;16392;52.508;13.468;2023-05-31T09:03:22;28.00;99.90
8563;DHT22;16392;52.508;13.468;2023-05-31T09:05:48;28.90;99.90
8563;DHT22;16392;52.508;13.468;2023-05-31T09:08:15;28.50;99.90
8563;DHT22;16392;52.508;13.468;2023-05-31T09:10:44;28.10;99.90
8563;DHT22;16392;52.508;13.468;2023-05-31T09:13:10;28.30;99.90
8563;DHT22;16392;52.508;13.468;2023-05-31T09:15:37;28.60;99.90
8563;DHT22;16392;52.508;13.468;2023-05-31T09:18:13;28.50;99.90
8563;DHT22;16392;52.508;13.468;2023-05-31T09:20:42;28.60;99.90
8563;DHT22;16392;52.508;13.468;2023-05-31T09:23:09;29.30;99.90
8563;DHT22;16392;52.508;13.468;2023-05-31T09:25:44;29.60;99.90
8563;DHT22;16392;52.508;13.468;2023-05-31T09:28:10;30.10;99.90
8563;DHT22;16392;52.508;13.468;2023-05-31T09:30:37;30.30;99.90
8563;DHT22;16392;52.508;13.468;2023-05-31T09:33:03;30.50;99.90
8563;DHT22;16392;52.508;13.468;2023-05-31T09:35:30;30.10;99.90
8563;DHT22;16392;52.508;13.468;2023-05-31T09:37:56;30.00;99.90
8563;DHT22;16392;52.508;13.468;2023-05-31T09:40:23;29.90;99.90
8563;DHT22;16392;52.508;13.468;2023-05-31T09:42:51;29.80;99.90
8563;DHT22;16392;52.508;13.468;2023-05-31T09:45:19;30.30;99.90
8563;DHT22;16392;52.508;13.468;2023-05-31T09:47:45;30.00;99.90
8563;DHT22;16392;52.508;13.468;2023-05-31T09:50:14;29.70;99.90
8563;DHT22;16392;52.508;13.468;2023-05-31T09:52:42;28.70;99.90
8563;DHT22;16392;52.508;13.468;2023-05-31T09:55:09;28.90;99.90
8563;DHT22;16392;52.508;13.468;2023-05-31T09:57:37;29.10;99.90
8563;DHT22;16392;52.508;13.468;2023-05-31T10:00:08;29.60;99.90
8563;DHT22;16392;52.508;13.468;2023-05-31T10:02:42;29.70;99.90
8563;DHT22;16392;52.508;13.468;2023-05-31T10:05:09;29.20;99.90
8563;DHT22;16392;52.508;13.468;2023-05-31T10:07:37;29.30;99.90
8563;DHT22;16392;52.508;13.468;2023-05-31T10:10:04;28.90;99.90
8563;DHT22;16392;52.508;13.468;2023-05-31T10:12:31;28.60;99.90
8563;DHT22;16392;52.508;13.468;2023-05-31T10:15:01;26.90;99.90
8563;DHT22;16392;52.508;13.468;2023-05-31T10:17:33;27.80;99.90
8563;DHT22;16392;52.508;13.468;2023-05-31T10:20:00;29.10;99.90
8563;DHT22;16392;52.508;13.468;2023-05-31T10:22:29;29.90;99.90
8563;DHT22;16392;52.508;13.468;2023-05-31T10:24:57;29.60;99.90
8563;DHT22;16392;52.508;13.468;2023-05-31T10:27:26;29.30;99.90
8563;DHT22;16392;52.508;13.468;2023-05-31T10:29:55;29.20;99.90
8563;DHT22;16392;52.508;13.468;2023-05-31T10:32:23;29.00;99.90
8563;DHT22;16392;52.508;13.468;2023-05-31T10:34:52;29.10;99.90
8563;DHT22;16392;52.508;13.468;2023-05-31T10:37:18;29.60;99.90
8563;DHT22;16392;52.508;13.468;2023-05-31T10:39:47;29.60;99.90
8563;DHT22;16392;52.508;13.468;2023-05-31T10:42:19;29.60;99.90
8563;DHT22;16392;52.508;13.468;2023-05-31T10:44:47;29.40;99.90
8563;DHT22;16392;52.508;13.468;2023-05-31T10:47:16;29.10;99.90
8563;DHT22;16392;52.508;13.468;2023-05-31T10:49:47;28.90;99.90
8563;DHT22;16392;52.508;13.468;2023-05-31T10:52:16;27.30;99.90
8563;DHT22;16392;52.508;13.468;2023-05-31T10:54:43;26.70;99.90
8563;DHT22;16392;52.508;13.468;2023-05-31T10:57:09;27.40;99.90
8563;DHT22;16392;52.508;13.468;2023-05-31T10:59:41;27.80;99.90
8563;DHT22;16392;52.508;13.468;2023-05-31T11:02:09;26.50;99.90
8563;DHT22;16392;52.508;13.468;2023-05-31T11:04:35;27.20;99.90
8563;DHT22;16392;52.508;13.468;2023-05-31T11:07:12;27.40;99.90
8563;DHT22;16392;52.508;13.468;2023-05-31T11:09:41;27.50;99.90
8563;DHT22;16392;52.508;13.468;2023-05-31T11:12:19;27.50;99.90
8563;DHT22;16392;52.508;13.468;2023-05-31T11:14:58;26.60;99.90
8563;DHT22;16392;52.508;13.468;2023-05-31T11:17:25;26.10;99.90
8563;DHT22;16392;52.508;13.468;2023-05-31T11:19:53;26.10;99.90
8563;DHT22;16392;52.508;13.468;2023-05-31T11:22:25;25.80;99.90
8563;DHT22;16392;52.508;13.468;2023-05-31T11:24:54;26.10;99.90
8563;DHT22;16392;52.508;13.468;2023-05-31T11:27:23;26.50;99.90
8563;DHT22;16392;52.508;13.468;2023-05-31T11:29:56;25.90;99.90
8563;DHT22;16392;52.508;13.468;2023-05-31T11:35:13;27.30;99.90
8563;DHT22;16392;52.508;13.468;2023-05-31T11:37:40;27.50;99.90
8563;DHT22;16392;52.508;13.468;2023-05-31T11:40:09;27.60;99.90
8563;DHT22;16392;52.508;13.468;2023-05-31T11:42:38;27.20;99.90
8563;DHT22;16392;52.508;13.468;2023-05-31T11:45:05;28.20;99.90
8563;DHT22;16392;52.508;13.468;2023-05-31T11:47:33;27.80;99.90
8563;DHT22;16392;52.508;13.468;2023-05-31T11:50:01;27.30;99.90
8563;DHT22;16392;52.508;13.468;2023-05-31T11:52:28;28.10;99.90
8563;DHT22;16392;52.508;13.468;2023-05-31T11:54:57;28.10;99.90
8563;DHT22;16392;52.508;13.468;2023-05-31T11:57:31;29.30;99.90
8563;DHT22;16392;52.508;13.468;2023-05-31T12:00:06;29.40;99.90
8563;DHT22;16392;52.508;13.468;2023-05-31T12:02:36;29.80;99.90
8563;DHT22;16392;52.508;13.468;2023-05-31T12:05:03;30.10;99.90
8563;DHT22;16392;52.508;13.468;2023-05-31T12:07:30;30.60;99.90
8563;DHT22;16392;52.508;13.468;2023-05-31T12:09:57;30.70;99.90
8563;DHT22;16392;52.508;13.468;2023-05-31T12:12:23;30.70;99.90
8563;DHT22;16392;52.508;13.468;2023-05-31T12:14:52;30.20;99.90
8563;DHT22;16392;52.508;13.468;2023-05-31T12:17:20;29.40;99.90
8563;DHT22;16392;52.508;13.468;2023-05-31T12:19:47;28.60;99.90
8563;DHT22;16392;52.508;13.468;2023-05-31T12:22:14;28.30;99.90
8563;DHT22;16392;52.508;13.468;2023-05-31T12:24:47;28.50;99.90
8563;DHT22;16392;52.508;13.468;2023-05-31T12:27:14;28.10;99.90
8563;DHT22;16392;52.508;13.468;2023-05-31T12:29:41;26.40;99.90
8563;DHT22;16392;52.508;13.468;2023-05-31T12:32:09;25.90;99.90
8563;DHT22;16392;52.508;13.468;2023-05-31T12:34:36;26.20;99.90
8563;DHT22;16392;52.508;13.468;2023-05-31T12:37:04;26.10;99.90
8563;DHT22;16392;52.508;13.468;2023-05-31T12:39:31;26.50;99.90
8563;DHT22;16392;52.508;13.468;2023-05-31T12:41:59;26.90;99.90
8563;DHT22;16392;52.508;13.468;2023-05-31T12:44:26;27.20;99.90
8563;DHT22;16392;52.508;13.468;2023-05-31T12:46:58;27.40;99.90
8563;DHT22;16392;52.508;13.468;2023-05-31T12:49:27;27.10;99.90
8563;DHT22;16392;52.508;13.468;2023-05-31T12:51:57;26.90;99.90
8563;DHT22;16392;52.508;13.468;2023-05-31T12:54:24;27.10;99.90
8563;DHT22;16392;52.508;13.468;2023-05-31T12:56:51;27.80;99.90
8563;DHT22;16392;52.508;13.468;2023-05-31T12:59:17;28.30;99.90
8563;DHT22;16392;52.508;13.468;2023-05-31T13:01:44;28.90;99.90
8563;DHT22;16392;52.508;13.468;2023-05-31T13:04:11;27.50;99.90
8563;DHT22;16392;52.508;13.468;2023-05-31T13:06:40;27.40;99.90
8563;DHT22;16392;52.508;13.468;2023-05-31T13:09:06;28.20;99.90
8563;DHT22;16392;52.508;13.468;2023-05-31T13:11:33;28.00;99.90
8563;DHT22;16392;52.508;13.468;2023-05-31T13:14:01;27.90;99.90
8563;DHT22;16392;52.508;13.468;2023-05-31T13:16:28;27.70;99.90
8563;DHT22;16392;52.508;13.468;2023-05-31T13:18:55;27.50;99.90
8563;DHT22;16392;52.508;13.468;2023-05-31T13:21:22;28.00;99.90
8563;DHT22;16392;52.508;13.468;2023-05-31T13:23:50;28.80;99.90
8563;DHT22;16392;52.508;13.468;2023-05-31T13:26:16;29.30;99.90
8563;DHT22;16392;52.508;13.468;2023-05-31T13:28:43;29.30;99.90
8563;DHT22;16392;52.508;13.468;2023-05-31T13:31:09;28.60;99.90
8563;DHT22;16392;52.508;13.468;2023-05-31T13:33:36;28.60;99.90
8563;DHT22;16392;52.508;13.468;2023-05-31T13:36:02;29.40;99.90
8563;DHT22;16392;52.508;13.468;2023-05-31T13:38:29;29.00;99.90
8563;DHT22;16392;52.508;13.468;2023-05-31T13:40:57;29.60;99.90
8563;DHT22;16392;52.508;13.468;2023-05-31T13:43:24;29.50;99.90
8563;DHT22;16392;52.508;13.468;2023-05-31T13:45:51;28.40;99.90
8563;DHT22;16392;52.508;13.468;2023-05-31T13:48:17;28.10;99.90
8563;DHT22;16392;52.508;13.468;2023-05-31T13:50:44;28.60;99.90
8563;DHT22;16392;52.508;13.468;2023-05-31T13:53:11;28.00;99.90
8563;DHT22;16392;52.508;13.468;2023-05-31T13:55:37;26.80;99.90
8563;DHT22;16392;52.508;13.468;2023-05-31T13:58:05;26.60;99.90
8563;DHT22;16392;52.508;13.468;2023-05-31T14:00:32;27.00;99.90
8563;DHT22;16392;52.508;13.468;2023-05-31T14:02:58;28.10;99.90
8563;DHT22;16392;52.508;13.468;2023-05-31T14:05:25;27.80;99.90
8563;DHT22;16392;52.508;13.468;2023-05-31T14:07:52;27.80;99.90
8563;DHT22;16392;52.508;13.468;2023-05-31T14:10:19;27.80;99.90
8563;DHT22;16392;52.508;13.468;2023-05-31T14:12:46;28.10;99.90
8563;DHT22;16392;52.508;13.468;2023-05-31T14:15:14;28.80;99.90
8563;DHT22;16392;52.508;13.468;2023-05-31T14:17:40;28.00;99.90
8563;DHT22;16392;52.508;13.468;2023-05-31T14:20:08;27.60;99.90
8563;DHT22;16392;52.508;13.468;2023-05-31T14:22:35;28.70;99.90
8563;DHT22;16392;52.508;13.468;2023-05-31T14:25:02;28.30;99.90
8563;DHT22;16392;52.508;13.468;2023-05-31T14:27:28;28.10;99.90
8563;DHT22;16392;52.508;13.468;2023-05-31T14:29:55;27.40;99.90
8563;DHT22;16392;52.508;13.468;2023-05-31T14:32:23;27.60;99.90
8563;DHT22;16392;52.508;13.468;2023-05-31T14:34:50;27.90;99.90
8563;DHT22;16392;52.508;13.468;2023-05-31T14:37:17;27.20;99.90
8563;DHT22;16392;52.508;13.468;2023-05-31T14:39:43;27.00;99.90
8563;DHT22;16392;52.508;13.468;2023-05-31T14:42:10;26.40;99.90
8563;DHT22;16392;52.508;13.468;2023-05-31T14:44:36;26.00;99.90
8563;DHT22;16392;52.508;13.468;2023-05-31T14:47:03;25.90;99.90
8563;DHT22;16392;52.508;13.468;2023-05-31T14:49:31;25.60;99.90
8563;DHT22;16392;52.508;13.468;2023-05-31T14:51:58;25.30;99.90
8563;DHT22;16392;52.508;13.468;2023-05-31T14:54:25;25.50;99.90
8563;DHT22;16392;52.508;13.468;2023-05-31T14:56:52;25.80;99.90
8563;DHT22;16392;52.508;13.468;2023-05-31T14:59:18;26.10;99.90
8563;DHT22;16392;52.508;13.468;2023-05-31T15:01:45;26.10;99.90
8563;DHT22;16392;52.508;13.468;2023-05-31T15:04:13;26.10;99.90
8563;DHT22;16392;52.508;13.468;2023-05-31T15:06:41;26.40;99.90
8563;DHT22;16392;52.508;13.468;2023-05-31T15:09:08;26.30;99.90
8563;DHT22;16392;52.508;13.468;2023-05-31T15:11:35;26.20;99.90
8563;DHT22;16392;52.508;13.468;2023-05-31T15:14:02;26.20;99.90
8563;DHT22;16392;52.508;13.468;2023-05-31T15:16:31;26.40;99.90
8563;DHT22;16392;52.508;13.468;2023-05-31T15:18:59;26.50;99.90
8563;DHT22;16392;52.508;13.468;2023-05-31T15:21:26;26.40;99.90
8563;DHT22;16392;52.508;13.468;2023-05-31T15:23:53;26.30;99.90
8563;DHT22;16392;52.508;13.468;2023-05-31T15:26:20;25.60;99.90
8563;DHT22;16392;52.508;13.468;2023-05-31T15:28:48;25.60;99.90
8563;DHT22;16392;52.508;13.468;2023-05-31T15:31:14;25.70;99.90
8563;DHT22;16392;52.508;13.468;2023-05-31T15:33:41;25.90;99.90
8563;DHT22;16392;52.508;13.468;2023-05-31T15:36:08;26.20;99.90
8563;DHT22;16392;52.508;13.468;2023-05-31T15:38:34;26.30;99.90